Terminal Aerodrome Forecast
Issued by NWS Wichita, KS

Home | Current Version | Previous Version | Graphics & Text | Print | Product List | Glossary On
Versions: 1 2 3 4 5 6 7 8 9 10 11 12 13 14 15 16 17 18 19 20 21 22 23 24 25 26
000
FTUS43 KICT 151008 AAC
TAFICT
TAF AMD
KICT 151008Z 1510/1606 23013KT P6SM SCT020 BKN050
     FM151100 28017KT P6SM SCT015 BKN050
     FM151400 31022G30KT P6SM OVC013
     FM151700 31022G30KT P6SM OVC025
     FM152100 31022G30KT P6SM OVC035=

USA.gov is the U.S. government's official web portal to all federal, state and local government web resources and services.